createdAt,value
2018-07-28T00:04:19.816Z,19.60
2018-07-28T00:06:47.738Z,19.60
2018-07-28T00:09:15.737Z,19.50
2018-07-28T00:11:43.660Z,19.50
2018-07-28T00:16:39.303Z,19.50
2018-07-28T00:19:07.344Z,19.60
2018-07-28T00:21:35.835Z,19.50
2018-07-28T00:26:31.566Z,19.40
2018-07-28T00:31:27.706Z,19.40
2018-07-28T00:36:24.116Z,19.30
2018-07-28T00:38:51.978Z,19.20
2018-07-28T00:41:19.930Z,19.10
2018-07-28T00:43:48.536Z,19.10
2018-07-28T00:46:16.428Z,19.20
2018-07-28T00:48:44.282Z,19.20
2018-07-28T00:51:12.239Z,19.20
2018-07-28T00:53:40.251Z,19.20
2018-07-28T00:56:08.532Z,19.10
2018-07-28T00:58:36.456Z,19.00
2018-07-28T01:01:04.369Z,19.00
2018-07-28T01:03:32.300Z,19.00
2018-07-28T01:06:00.804Z,19.00
2018-07-28T01:08:28.702Z,19.00
2018-07-28T01:15:54.204Z,19.00
2018-07-28T01:18:22.108Z,19.00
2018-07-28T01:23:19.174Z,19.00
2018-07-28T01:28:14.771Z,18.80
2018-07-28T01:30:43.073Z,18.70
2018-07-28T01:35:38.747Z,18.60
2018-07-28T01:38:06.628Z,18.40
2018-07-28T01:40:34.614Z,18.40
2018-07-28T01:43:02.486Z,18.40
2018-07-28T01:45:30.441Z,18.40
2018-07-28T01:47:58.975Z,18.40
2018-07-28T01:52:55.354Z,18.30
2018-07-28T01:55:23.265Z,18.30
2018-07-28T01:57:51.150Z,18.40
2018-07-28T02:02:46.757Z,18.40
2018-07-28T02:05:14.706Z,18.40
2018-07-28T02:07:42.565Z,18.50
2018-07-28T02:10:10.582Z,18.50
2018-07-28T02:15:07.569Z,18.30
2018-07-28T02:17:35.473Z,18.30
2018-07-28T02:20:04.384Z,18.30
2018-07-28T02:22:32.892Z,18.30
2018-07-28T02:25:00.827Z,18.30
2018-07-28T02:27:28.910Z,18.30
2018-07-28T02:29:57.297Z,18.30
2018-07-28T02:32:25.246Z,18.30
2018-07-28T02:34:53.925Z,18.30
2018-07-28T02:37:21.810Z,18.20
2018-07-28T02:39:49.721Z,18.20
2018-07-28T02:42:17.645Z,18.10
2018-07-28T02:44:45.652Z,18.10
2018-07-28T02:47:13.548Z,18.10
2018-07-28T02:49:42.021Z,18.10
2018-07-28T02:52:09.999Z,18.10
2018-07-28T02:54:37.947Z,18.00
2018-07-28T02:57:05.849Z,18.10
2018-07-28T02:59:33.710Z,18.10
2018-07-28T03:02:01.616Z,18.10
2018-07-28T03:06:57.906Z,18.00
2018-07-28T03:09:26.151Z,18.10
2018-07-28T03:11:54.049Z,18.10
2018-07-28T03:14:21.945Z,18.10
2018-07-28T03:16:49.831Z,18.10
2018-07-28T03:19:18.246Z,18.00
2018-07-28T03:21:46.626Z,18.00
2018-07-28T03:24:15.271Z,18.00
2018-07-28T03:26:43.220Z,18.00
2018-07-28T03:29:11.149Z,17.90
2018-07-28T03:31:39.147Z,17.90
2018-07-28T03:34:07.141Z,17.80
2018-07-28T03:36:35.041Z,17.80
2018-07-28T03:41:31.332Z,17.70
2018-07-28T03:43:59.215Z,17.70
2018-07-28T03:46:27.156Z,17.70
2018-07-28T03:48:55.157Z,17.60
2018-07-28T03:51:23.035Z,17.50
2018-07-28T03:53:50.979Z,17.60
2018-07-28T03:56:18.925Z,17.60
2018-07-28T03:58:46.875Z,17.70
2018-07-28T04:01:14.811Z,17.70
2018-07-28T04:03:43.349Z,17.70
2018-07-28T04:06:11.292Z,17.70
2018-07-28T04:11:06.923Z,17.70
2018-07-28T04:16:04.232Z,17.70
2018-07-28T04:18:33.376Z,17.80
2018-07-28T04:25:57.572Z,17.70
2018-07-28T04:28:26.073Z,17.70
2018-07-28T04:35:51.104Z,18.00
2018-07-28T04:38:18.975Z,17.90
2018-07-28T04:40:47.711Z,18.00
2018-07-28T04:43:15.839Z,18.00
2018-07-28T04:45:43.780Z,18.00
2018-07-28T04:48:12.289Z,18.00
2018-07-28T04:53:08.185Z,18.30
2018-07-28T04:55:36.059Z,18.40
2018-07-28T04:58:03.935Z,18.40
2018-07-28T05:00:31.888Z,18.50
2018-07-28T05:03:00.412Z,18.50
2018-07-28T05:07:56.077Z,18.60
2018-07-28T05:10:24.009Z,18.70
2018-07-28T05:12:51.928Z,18.80
2018-07-28T05:15:20.168Z,18.80
2018-07-28T05:22:44.280Z,19.20
2018-07-28T05:27:40.504Z,19.40
2018-07-28T05:30:10.150Z,19.40
2018-07-28T05:32:38.188Z,19.60
2018-07-28T05:35:07.719Z,19.70
2018-07-28T05:37:35.684Z,19.80
2018-07-28T05:40:03.969Z,20.00
2018-07-28T05:42:32.242Z,20.20
2018-07-28T05:45:00.837Z,20.40
2018-07-28T05:47:28.775Z,20.70
2018-07-28T05:49:56.720Z,21.10
2018-07-28T05:52:24.656Z,21.30
2018-07-28T05:54:52.540Z,21.60
2018-07-28T05:57:20.511Z,22.10
2018-07-28T05:59:49.117Z,22.50
2018-07-28T06:02:17.010Z,22.70
2018-07-28T06:04:45.581Z,22.70
2018-07-28T06:07:13.491Z,22.70
2018-07-28T06:09:41.465Z,22.80
2018-07-28T06:12:10.677Z,23.00
2018-07-28T06:14:38.524Z,23.00
2018-07-28T06:17:06.523Z,23.00
2018-07-28T06:19:35.012Z,23.00
2018-07-28T06:22:04.057Z,23.40
2018-07-28T06:24:31.908Z,23.50
2018-07-28T06:29:27.604Z,23.40
2018-07-28T06:31:55.682Z,23.40
2018-07-28T06:34:23.720Z,23.40
2018-07-28T06:36:51.593Z,23.40
2018-07-28T06:39:19.521Z,23.40
2018-07-28T06:41:48.053Z,23.40
2018-07-28T06:44:15.980Z,23.40
2018-07-28T06:49:12.386Z,23.90
2018-07-28T06:51:40.937Z,23.80
2018-07-28T06:54:08.868Z,24.00
2018-07-28T06:56:36.807Z,24.10
2018-07-28T06:59:10.934Z,24.20
2018-07-28T07:01:39.208Z,24.40
2018-07-28T07:04:07.165Z,24.60
2018-07-28T07:06:35.477Z,24.60
2018-07-28T07:09:05.564Z,24.70
2018-07-28T07:14:03.171Z,24.90
2018-07-28T07:18:59.322Z,25.00
2018-07-28T07:23:55.811Z,25.70
2018-07-28T07:26:23.802Z,25.70
2018-07-28T07:28:52.458Z,25.70
2018-07-28T07:31:20.340Z,25.80
2018-07-28T07:33:48.236Z,26.20
2018-07-28T07:41:17.999Z,26.30
2018-07-28T07:53:37.474Z,26.40
2018-07-28T07:56:07.072Z,26.40
2018-07-28T07:58:35.922Z,26.50
2018-07-28T08:03:32.785Z,26.50
2018-07-28T08:10:56.256Z,26.50
2018-07-28T08:13:24.170Z,26.50
2018-07-28T08:15:52.377Z,26.40
2018-07-28T08:18:20.375Z,26.30
2018-07-28T08:20:48.342Z,26.30
2018-07-28T08:23:16.372Z,26.30
2018-07-28T08:25:45.635Z,26.40
2018-07-28T08:28:15.120Z,26.50
2018-07-28T08:30:45.117Z,26.60
2018-07-28T08:33:12.976Z,26.50
2018-07-28T08:35:40.800Z,26.60
2018-07-28T08:38:08.720Z,26.70
2018-07-28T08:40:36.626Z,26.90
2018-07-28T08:43:04.902Z,26.90
2018-07-28T08:45:32.831Z,26.90
2018-07-28T08:48:00.816Z,26.90
2018-07-28T08:50:30.039Z,27.00
2018-07-28T08:55:25.695Z,27.10
2018-07-28T08:57:53.587Z,27.30
2018-07-28T09:00:21.494Z,27.40
2018-07-28T09:02:50.155Z,27.40
2018-07-28T09:05:18.039Z,27.50
2018-07-28T09:07:46.888Z,27.50
2018-07-28T09:10:14.823Z,27.60
2018-07-28T09:12:42.931Z,27.60
2018-07-28T09:15:11.448Z,27.60
2018-07-28T09:17:39.477Z,27.60
2018-07-28T09:20:08.321Z,27.70
2018-07-28T09:22:36.845Z,27.70
2018-07-28T09:25:06.342Z,27.70
2018-07-28T09:30:02.115Z,27.90
2018-07-28T09:32:30.878Z,28.00
2018-07-28T09:34:58.775Z,28.10
2018-07-28T09:37:26.692Z,28.10
2018-07-28T09:39:55.296Z,28.10
2018-07-28T09:42:23.479Z,28.10
2018-07-28T09:44:51.452Z,28.20
2018-07-28T09:47:20.408Z,28.20
2018-07-28T09:49:48.308Z,28.40
2018-07-28T09:52:16.216Z,28.30
2018-07-28T09:54:44.086Z,28.40
2018-07-28T09:57:12.006Z,28.60
2018-07-28T09:59:40.469Z,28.70
2018-07-28T10:04:36.899Z,29.00
2018-07-28T10:09:33.175Z,29.30
2018-07-28T10:12:01.033Z,29.50
2018-07-28T10:14:28.898Z,29.80
2018-07-28T10:16:57.220Z,29.80
2018-07-28T10:19:25.779Z,29.80
2018-07-28T10:21:53.762Z,29.90
2018-07-28T10:24:21.642Z,29.90
2018-07-28T10:26:50.207Z,30.00
2018-07-28T10:29:18.094Z,30.00
2018-07-28T10:31:46.003Z,29.90
2018-07-28T10:34:13.832Z,29.90
2018-07-28T10:36:41.819Z,30.10
2018-07-28T10:39:11.995Z,30.00
2018-07-28T10:44:07.997Z,29.70
2018-07-28T10:46:36.295Z,29.60
2018-07-28T10:49:05.033Z,29.50
2018-07-28T10:51:33.011Z,29.40
2018-07-28T10:54:00.898Z,29.40
2018-07-28T10:56:28.835Z,29.40
2018-07-28T10:58:56.738Z,29.50
2018-07-28T11:03:52.479Z,29.60
2018-07-28T11:06:20.407Z,29.60
2018-07-28T11:08:48.303Z,29.70
2018-07-28T11:11:16.199Z,29.60
2018-07-28T11:13:44.082Z,29.70
2018-07-28T11:16:12.071Z,29.90
2018-07-28T11:18:39.979Z,30.00
2018-07-28T11:21:08.472Z,30.30
2018-07-28T11:23:47.682Z,30.50
2018-07-28T11:26:18.662Z,30.70
2018-07-28T11:28:47.119Z,30.80
2018-07-28T11:31:26.420Z,30.90
2018-07-28T11:34:06.094Z,31.10
2018-07-28T11:39:18.797Z,31.50
2018-07-28T11:41:58.066Z,31.60
2018-07-28T11:46:59.391Z,31.60
2018-07-28T11:49:27.880Z,31.60
2018-07-28T11:51:56.419Z,31.50
2018-07-28T11:56:52.860Z,31.80
2018-07-28T11:59:20.772Z,31.90
2018-07-28T12:06:45.675Z,32.20
2018-07-28T12:09:13.630Z,32.10
2018-07-28T12:16:38.460Z,32.50
2018-07-28T12:19:06.393Z,32.60
2018-07-28T12:21:34.305Z,32.60
2018-07-28T12:24:02.377Z,32.70
2018-07-28T12:26:30.196Z,32.60
2018-07-28T12:28:58.070Z,32.70
2018-07-28T12:31:25.951Z,33.00
2018-07-28T12:33:53.836Z,33.00
2018-07-28T12:36:21.681Z,32.60
2018-07-28T12:38:49.558Z,32.70
2018-07-28T12:41:17.420Z,32.90
2018-07-28T12:43:46.032Z,33.00
2018-07-28T12:48:41.954Z,33.00
2018-07-28T12:51:09.969Z,32.90
2018-07-28T12:53:37.835Z,32.60
2018-07-28T12:56:05.836Z,32.60
2018-07-28T12:58:33.745Z,32.60
2018-07-28T13:08:25.874Z,32.00
2018-07-28T13:10:53.786Z,31.90
2018-07-28T13:13:21.650Z,31.90
2018-07-28T13:15:49.824Z,31.90
2018-07-28T13:23:13.193Z,32.40
2018-07-28T13:25:41.105Z,32.10
2018-07-28T13:28:09.700Z,31.90
2018-07-28T13:30:37.712Z,31.70
2018-07-28T13:35:33.435Z,31.80
2018-07-28T13:38:02.538Z,32.00
2018-07-28T13:40:30.427Z,32.30
2018-07-28T13:42:58.356Z,32.40
2018-07-28T13:45:27.087Z,32.20
2018-07-28T13:50:22.658Z,31.60
2018-07-28T13:52:50.576Z,31.30
2018-07-28T13:55:18.460Z,31.20
2018-07-28T13:57:47.224Z,31.20
2018-07-28T14:00:15.232Z,31.30
2018-07-28T14:05:11.961Z,31.60
2018-07-28T14:07:40.062Z,31.50
2018-07-28T14:12:36.496Z,31.70
2018-07-28T14:15:06.060Z,31.70
2018-07-28T14:17:33.909Z,31.70
2018-07-28T14:20:01.841Z,31.50
2018-07-28T14:22:30.276Z,31.10
2018-07-28T14:24:58.230Z,31.10
2018-07-28T14:27:26.860Z,30.90
2018-07-28T14:29:54.771Z,30.90
2018-07-28T14:32:23.723Z,30.80
2018-07-28T14:34:51.638Z,30.90
2018-07-28T14:37:22.688Z,31.10
2018-07-28T14:39:51.201Z,31.00
2018-07-28T14:42:19.104Z,30.80
2018-07-28T14:44:47.083Z,30.70
2018-07-28T14:47:14.954Z,30.50
2018-07-28T14:52:10.631Z,30.50
2018-07-28T14:54:39.312Z,30.50
2018-07-28T14:57:07.223Z,30.50
2018-07-28T14:59:35.173Z,30.60
2018-07-28T15:02:03.108Z,31.00
2018-07-28T15:04:31.008Z,31.10
2018-07-28T15:11:54.313Z,31.20
2018-07-28T15:14:22.170Z,31.30
2018-07-28T15:19:18.296Z,31.30
2018-07-28T15:21:46.181Z,31.40
2018-07-28T15:24:14.096Z,31.50
2018-07-28T15:26:41.992Z,31.80
2018-07-28T15:29:10.495Z,31.90
2018-07-28T15:31:38.695Z,31.90
2018-07-28T15:34:06.633Z,31.90
2018-07-28T15:36:34.542Z,31.90
2018-07-28T15:39:02.608Z,31.90
2018-07-28T15:43:58.232Z,32.20
2018-07-28T15:46:26.069Z,32.10
2018-07-28T15:48:53.965Z,32.10
2018-07-28T15:53:49.858Z,32.10
2018-07-28T15:56:17.754Z,32.10
2018-07-28T15:58:45.584Z,32.10
2018-07-28T16:01:13.594Z,32.10
2018-07-28T16:06:09.247Z,32.20
2018-07-28T16:11:05.765Z,32.00
2018-07-28T16:13:33.719Z,31.90
2018-07-28T16:16:01.696Z,31.80
2018-07-28T16:18:29.617Z,31.80
2018-07-28T16:23:26.012Z,31.50
2018-07-28T16:25:53.895Z,31.60
2018-07-28T16:28:21.713Z,31.60
2018-07-28T16:30:49.597Z,31.70
2018-07-28T16:33:17.458Z,31.60
2018-07-28T16:35:45.363Z,31.50
2018-07-28T16:38:13.257Z,31.60
2018-07-28T16:40:41.121Z,31.50
2018-07-28T16:45:36.986Z,31.60
2018-07-28T16:50:33.536Z,31.70
2018-07-28T16:53:01.982Z,31.60
2018-07-28T16:55:29.886Z,31.50
2018-07-28T16:57:57.783Z,31.50
2018-07-28T17:00:25.663Z,31.50
2018-07-28T17:02:53.513Z,31.50
2018-07-28T17:05:21.377Z,31.50
2018-07-28T17:07:49.366Z,31.60
2018-07-28T17:10:17.244Z,31.50
2018-07-28T17:12:45.287Z,31.50
2018-07-28T17:15:13.182Z,31.40
2018-07-28T17:17:42.333Z,31.30
2018-07-28T17:20:10.312Z,31.30
2018-07-28T17:22:38.279Z,31.30
2018-07-28T17:25:06.174Z,31.30
2018-07-28T17:27:34.475Z,31.20
2018-07-28T17:30:02.338Z,31.20
2018-07-28T17:32:30.363Z,31.10
2018-07-28T17:34:58.527Z,30.90
2018-07-28T17:44:50.922Z,30.40
2018-07-28T17:47:18.831Z,30.20
2018-07-28T17:49:46.782Z,30.00
2018-07-28T17:52:14.668Z,29.80
2018-07-28T17:54:42.510Z,29.70
2018-07-28T17:57:10.462Z,29.50
2018-07-28T17:59:38.586Z,29.30
2018-07-28T18:02:07.485Z,29.20
2018-07-28T18:07:03.222Z,28.90
2018-07-28T18:11:59.944Z,28.80
2018-07-28T18:14:27.803Z,28.70
2018-07-28T18:16:55.716Z,28.60
2018-07-28T18:21:51.654Z,28.40
2018-07-28T18:24:19.603Z,28.40
2018-07-28T18:26:47.477Z,28.30
2018-07-28T18:29:15.983Z,28.30
2018-07-28T18:31:43.841Z,28.20
2018-07-28T18:34:12.051Z,28.20
2018-07-28T18:36:40.513Z,28.10
2018-07-28T18:39:10.000Z,28.00
2018-07-28T18:44:05.680Z,27.80
2018-07-28T18:46:33.876Z,27.70
2018-07-28T18:49:01.736Z,27.60
2018-07-28T18:51:29.639Z,27.40
2018-07-28T18:53:57.860Z,27.30
2018-07-28T18:56:25.812Z,27.10
2018-07-28T18:58:53.720Z,27.00
2018-07-28T19:01:21.734Z,26.90
2018-07-28T19:03:49.622Z,26.80
2018-07-28T19:08:50.679Z,26.70
2018-07-28T19:11:18.590Z,26.70
2018-07-28T19:13:52.179Z,26.60
2018-07-28T19:16:20.819Z,26.50
2018-07-28T19:26:23.367Z,26.10
2018-07-28T19:28:56.881Z,26.00
2018-07-28T19:31:24.828Z,26.00
2018-07-28T19:33:53.682Z,25.90
2018-07-28T19:36:28.004Z,25.80
2018-07-28T19:38:55.882Z,25.80
2018-07-28T19:41:23.748Z,25.80
2018-07-28T19:43:52.396Z,25.70
2018-07-28T19:46:21.066Z,25.60
2018-07-28T19:48:48.971Z,25.50
2018-07-28T19:51:17.066Z,25.40
2018-07-28T19:53:45.129Z,25.20
2018-07-28T19:56:13.036Z,25.10
2018-07-28T19:58:40.962Z,24.90
2018-07-28T20:01:09.073Z,24.70
2018-07-28T20:03:38.269Z,24.70
2018-07-28T20:08:34.087Z,24.60
2018-07-28T20:13:29.743Z,24.50
2018-07-28T20:18:25.403Z,24.50
2018-07-28T20:20:53.282Z,24.50
2018-07-28T20:23:21.160Z,24.40
2018-07-28T20:25:49.057Z,24.30
2018-07-28T20:28:16.996Z,24.20
2018-07-28T20:30:45.934Z,24.20
2018-07-28T20:35:41.638Z,24.10
2018-07-28T20:38:09.562Z,24.10
2018-07-28T20:40:37.473Z,24.00
2018-07-28T20:43:05.520Z,24.00
2018-07-28T20:45:33.608Z,23.80
2018-07-28T20:48:01.480Z,23.60
2018-07-28T20:55:25.031Z,23.30
2018-07-28T20:57:52.938Z,23.40
2018-07-28T21:02:48.555Z,23.40
2018-07-28T21:05:16.449Z,23.20
2018-07-28T21:07:44.384Z,23.30
2018-07-28T21:10:12.303Z,23.30
2018-07-28T21:15:07.937Z,23.10
2018-07-28T21:20:04.349Z,23.00
2018-07-28T21:22:32.311Z,23.00
2018-07-28T21:25:00.263Z,23.10
2018-07-28T21:27:28.207Z,23.10
2018-07-28T21:34:52.726Z,23.00
2018-07-28T21:39:49.370Z,23.00
2018-07-28T21:42:17.825Z,23.00
2018-07-28T21:44:45.715Z,23.00
2018-07-28T21:49:41.643Z,23.00
2018-07-28T21:54:38.538Z,23.10
2018-07-28T21:57:07.039Z,23.10
2018-07-28T21:59:35.554Z,23.10
2018-07-28T22:02:03.545Z,23.10
2018-07-28T22:07:01.586Z,23.10
2018-07-28T22:09:29.462Z,23.00
2018-07-28T22:11:57.785Z,23.00
2018-07-28T22:14:25.686Z,23.00
2018-07-28T22:16:54.487Z,23.00
2018-07-28T22:19:22.408Z,23.00
2018-07-28T22:24:18.757Z,22.90
2018-07-28T22:31:42.224Z,22.90
2018-07-28T22:34:11.403Z,22.90
2018-07-28T22:36:39.365Z,22.90
2018-07-28T22:39:09.836Z,22.80
2018-07-28T22:41:38.575Z,22.70
2018-07-28T22:44:06.559Z,22.60
2018-07-28T22:49:02.262Z,22.50
2018-07-28T22:51:30.172Z,22.50
2018-07-28T22:53:58.117Z,22.60
2018-07-28T22:56:25.997Z,22.50
2018-07-28T22:58:54.410Z,22.50
2018-07-28T23:01:22.416Z,22.50
2018-07-28T23:03:50.268Z,22.50
2018-07-28T23:06:18.212Z,22.60
2018-07-28T23:08:52.542Z,22.50
2018-07-28T23:11:21.324Z,22.50
2018-07-28T23:13:49.402Z,22.50
2018-07-28T23:16:17.286Z,22.40
2018-07-28T23:18:45.947Z,22.30
2018-07-28T23:21:15.134Z,22.20
2018-07-28T23:23:43.076Z,22.10
2018-07-28T23:26:11.001Z,22.10
2018-07-28T23:36:02.237Z,22.20
2018-07-28T23:38:30.146Z,22.20
2018-07-28T23:43:26.897Z,22.10
2018-07-28T23:45:54.763Z,22.00
2018-07-28T23:48:22.623Z,21.90
2018-07-28T23:53:18.855Z,21.80
2018-07-28T23:55:47.348Z,21.80
